sensor_id;sensor_type;location;lat;lon;timestamp;P1;durP1;ratioP1;P2;durP2;ratioP2
71626;SDS011;59475;52.464;13.590;2023-05-06T00:00:24;8.27;;;4.03;;
71626;SDS011;59475;52.464;13.590;2023-05-06T00:02:49;10.47;;;5.33;;
71626;SDS011;59475;52.464;13.590;2023-05-06T00:05:15;10.93;;;5.47;;
71626;SDS011;59475;52.464;13.590;2023-05-06T00:07:42;8.15;;;5.07;;
71626;SDS011;59475;52.464;13.590;2023-05-06T00:10:08;13.67;;;5.27;;
71626;SDS011;59475;52.464;13.590;2023-05-06T00:12:34;10.05;;;5.53;;
71626;SDS011;59475;52.464;13.590;2023-05-06T00:14:59;15.13;;;5.43;;
71626;SDS011;59475;52.464;13.590;2023-05-06T00:17:24;9.53;;;5.57;;
71626;SDS011;59475;52.464;13.590;2023-05-06T00:19:50;10.38;;;5.68;;
71626;SDS011;59475;52.464;13.590;2023-05-06T00:22:16;12.57;;;5.37;;
71626;SDS011;59475;52.464;13.590;2023-05-06T00:24:41;10.80;;;5.60;;
71626;SDS011;59475;52.464;13.590;2023-05-06T00:27:07;9.77;;;5.10;;
71626;SDS011;59475;52.464;13.590;2023-05-06T00:29:32;11.03;;;5.27;;
71626;SDS011;59475;52.464;13.590;2023-05-06T00:31:58;8.57;;;4.78;;
71626;SDS011;59475;52.464;13.590;2023-05-06T00:34:23;10.07;;;5.50;;
71626;SDS011;59475;52.464;13.590;2023-05-06T00:36:49;8.50;;;5.00;;
71626;SDS011;59475;52.464;13.590;2023-05-06T00:39:14;9.13;;;5.40;;
71626;SDS011;59475;52.464;13.590;2023-05-06T00:41:40;14.15;;;5.63;;
71626;SDS011;59475;52.464;13.590;2023-05-06T00:44:05;9.50;;;5.37;;
71626;SDS011;59475;52.464;13.590;2023-05-06T00:46:31;12.77;;;5.87;;
71626;SDS011;59475;52.464;13.590;2023-05-06T00:48:57;7.65;;;5.32;;
71626;SDS011;59475;52.464;13.590;2023-05-06T00:51:22;8.03;;;5.47;;
71626;SDS011;59475;52.464;13.590;2023-05-06T00:53:48;11.95;;;5.75;;
71626;SDS011;59475;52.464;13.590;2023-05-06T00:56:14;9.03;;;5.87;;
71626;SDS011;59475;52.464;13.590;2023-05-06T00:58:41;8.75;;;5.07;;
71626;SDS011;59475;52.464;13.590;2023-05-06T01:01:08;8.23;;;5.13;;
71626;SDS011;59475;52.464;13.590;2023-05-06T01:03:33;7.57;;;5.40;;
71626;SDS011;59475;52.464;13.590;2023-05-06T01:06:13;7.73;;;5.27;;
71626;SDS011;59475;52.464;13.590;2023-05-06T01:11:22;9.38;;;6.00;;
71626;SDS011;59475;52.464;13.590;2023-05-06T01:16:30;14.43;;;7.28;;
71626;SDS011;59475;52.464;13.590;2023-05-06T01:18:57;9.88;;;6.00;;
71626;SDS011;59475;52.464;13.590;2023-05-06T01:21:24;9.15;;;5.63;;
71626;SDS011;59475;52.464;13.590;2023-05-06T01:23:58;13.23;;;5.75;;
71626;SDS011;59475;52.464;13.590;2023-05-06T01:26:24;11.53;;;6.00;;
71626;SDS011;59475;52.464;13.590;2023-05-06T01:28:50;8.52;;;6.22;;
71626;SDS011;59475;52.464;13.590;2023-05-06T01:31:20;7.93;;;5.45;;
71626;SDS011;59475;52.464;13.590;2023-05-06T01:33:58;13.03;;;6.70;;
71626;SDS011;59475;52.464;13.590;2023-05-06T01:36:52;10.32;;;6.25;;
71626;SDS011;59475;52.464;13.590;2023-05-06T01:39:28;11.15;;;5.82;;
71626;SDS011;59475;52.464;13.590;2023-05-06T01:41:56;10.73;;;6.43;;
71626;SDS011;59475;52.464;13.590;2023-05-06T01:44:23;11.57;;;6.20;;
71626;SDS011;59475;52.464;13.590;2023-05-06T01:46:51;13.07;;;5.93;;
71626;SDS011;59475;52.464;13.590;2023-05-06T01:49:18;9.68;;;6.25;;
71626;SDS011;59475;52.464;13.590;2023-05-06T01:51:46;9.93;;;6.75;;
71626;SDS011;59475;52.464;13.590;2023-05-06T01:54:12;9.63;;;6.15;;
71626;SDS011;59475;52.464;13.590;2023-05-06T01:56:38;16.87;;;6.73;;
71626;SDS011;59475;52.464;13.590;2023-05-06T01:59:03;7.25;;;5.03;;
71626;SDS011;59475;52.464;13.590;2023-05-06T02:01:28;10.00;;;6.17;;
71626;SDS011;59475;52.464;13.590;2023-05-06T02:03:54;12.80;;;6.50;;
71626;SDS011;59475;52.464;13.590;2023-05-06T02:06:19;9.97;;;5.87;;
71626;SDS011;59475;52.464;13.590;2023-05-06T02:08:45;9.27;;;5.53;;
71626;SDS011;59475;52.464;13.590;2023-05-06T02:11:10;10.53;;;5.53;;
71626;SDS011;59475;52.464;13.590;2023-05-06T02:13:35;9.97;;;5.87;;
71626;SDS011;59475;52.464;13.590;2023-05-06T02:16:01;9.27;;;6.10;;
71626;SDS011;59475;52.464;13.590;2023-05-06T02:18:27;7.53;;;5.20;;
71626;SDS011;59475;52.464;13.590;2023-05-06T02:20:52;10.95;;;6.55;;
71626;SDS011;59475;52.464;13.590;2023-05-06T02:23:18;13.23;;;5.33;;
71626;SDS011;59475;52.464;13.590;2023-05-06T02:25:43;9.77;;;5.70;;
71626;SDS011;59475;52.464;13.590;2023-05-06T02:28:08;12.00;;;6.63;;
71626;SDS011;59475;52.464;13.590;2023-05-06T02:30:34;10.77;;;5.50;;
71626;SDS011;59475;52.464;13.590;2023-05-06T02:33:00;9.70;;;5.68;;
71626;SDS011;59475;52.464;13.590;2023-05-06T02:35:26;10.93;;;5.97;;
71626;SDS011;59475;52.464;13.590;2023-05-06T02:37:51;9.53;;;5.40;;
71626;SDS011;59475;52.464;13.590;2023-05-06T02:40:16;12.05;;;6.88;;
71626;SDS011;59475;52.464;13.590;2023-05-06T02:42:42;9.13;;;6.10;;
71626;SDS011;59475;52.464;13.590;2023-05-06T02:45:07;10.73;;;6.03;;
71626;SDS011;59475;52.464;13.590;2023-05-06T02:47:33;11.63;;;5.95;;
71626;SDS011;59475;52.464;13.590;2023-05-06T02:49:58;15.20;;;7.30;;
71626;SDS011;59475;52.464;13.590;2023-05-06T02:52:24;11.53;;;6.30;;
71626;SDS011;59475;52.464;13.590;2023-05-06T02:54:49;9.87;;;6.27;;
71626;SDS011;59475;52.464;13.590;2023-05-06T02:57:15;13.57;;;6.38;;
71626;SDS011;59475;52.464;13.590;2023-05-06T02:59:40;11.43;;;6.07;;
71626;SDS011;59475;52.464;13.590;2023-05-06T03:02:05;11.63;;;6.33;;
71626;SDS011;59475;52.464;13.590;2023-05-06T03:04:31;11.90;;;6.55;;
71626;SDS011;59475;52.464;13.590;2023-05-06T03:06:57;10.10;;;6.10;;
71626;SDS011;59475;52.464;13.590;2023-05-06T03:09:22;14.93;;;6.60;;
71626;SDS011;59475;52.464;13.590;2023-05-06T03:11:48;16.80;;;7.43;;
71626;SDS011;59475;52.464;13.590;2023-05-06T03:14:13;12.13;;;6.20;;
71626;SDS011;59475;52.464;13.590;2023-05-06T03:16:39;14.80;;;6.00;;
71626;SDS011;59475;52.464;13.590;2023-05-06T03:19:04;9.37;;;6.63;;
71626;SDS011;59475;52.464;13.590;2023-05-06T03:21:30;11.98;;;5.88;;
71626;SDS011;59475;52.464;13.590;2023-05-06T03:23:56;13.82;;;6.80;;
71626;SDS011;59475;52.464;13.590;2023-05-06T03:26:21;7.67;;;5.37;;
71626;SDS011;59475;52.464;13.590;2023-05-06T03:28:46;11.00;;;6.20;;
71626;SDS011;59475;52.464;13.590;2023-05-06T03:31:12;10.77;;;6.37;;
71626;SDS011;59475;52.464;13.590;2023-05-06T03:33:38;11.03;;;6.27;;
71626;SDS011;59475;52.464;13.590;2023-05-06T03:36:03;12.83;;;7.47;;
71626;SDS011;59475;52.464;13.590;2023-05-06T03:38:29;13.30;;;6.78;;
71626;SDS011;59475;52.464;13.590;2023-05-06T03:40:55;11.50;;;6.57;;
71626;SDS011;59475;52.464;13.590;2023-05-06T03:43:20;13.00;;;6.85;;
71626;SDS011;59475;52.464;13.590;2023-05-06T03:45:45;12.20;;;6.53;;
71626;SDS011;59475;52.464;13.590;2023-05-06T03:48:11;13.83;;;6.97;;
71626;SDS011;59475;52.464;13.590;2023-05-06T03:50:36;9.87;;;6.43;;
71626;SDS011;59475;52.464;13.590;2023-05-06T03:53:02;11.00;;;7.00;;
71626;SDS011;59475;52.464;13.590;2023-05-06T03:55:28;13.57;;;7.10;;
71626;SDS011;59475;52.464;13.590;2023-05-06T03:57:53;11.20;;;6.88;;
71626;SDS011;59475;52.464;13.590;2023-05-06T04:00:19;10.40;;;6.27;;
71626;SDS011;59475;52.464;13.590;2023-05-06T04:02:44;11.00;;;7.07;;
71626;SDS011;59475;52.464;13.590;2023-05-06T04:05:09;11.03;;;6.10;;
71626;SDS011;59475;52.464;13.590;2023-05-06T04:07:35;12.17;;;6.30;;
71626;SDS011;59475;52.464;13.590;2023-05-06T04:10:00;14.47;;;7.40;;
71626;SDS011;59475;52.464;13.590;2023-05-06T04:12:26;11.40;;;6.90;;
71626;SDS011;59475;52.464;13.590;2023-05-06T04:14:51;12.47;;;7.33;;
71626;SDS011;59475;52.464;13.590;2023-05-06T04:17:17;14.23;;;7.47;;
71626;SDS011;59475;52.464;13.590;2023-05-06T04:19:42;14.43;;;7.13;;
71626;SDS011;59475;52.464;13.590;2023-05-06T04:22:08;13.43;;;6.93;;
71626;SDS011;59475;52.464;13.590;2023-05-06T04:24:33;11.52;;;7.20;;
71626;SDS011;59475;52.464;13.590;2023-05-06T04:26:59;11.20;;;6.73;;
71626;SDS011;59475;52.464;13.590;2023-05-06T04:29:24;13.63;;;6.20;;
71626;SDS011;59475;52.464;13.590;2023-05-06T04:31:51;11.27;;;6.47;;
71626;SDS011;59475;52.464;13.590;2023-05-06T04:34:17;14.95;;;6.97;;
71626;SDS011;59475;52.464;13.590;2023-05-06T04:36:43;10.07;;;6.53;;
71626;SDS011;59475;52.464;13.590;2023-05-06T04:39:08;13.13;;;7.17;;
71626;SDS011;59475;52.464;13.590;2023-05-06T04:41:34;10.73;;;5.87;;
71626;SDS011;59475;52.464;13.590;2023-05-06T04:44:00;11.88;;;6.45;;
71626;SDS011;59475;52.464;13.590;2023-05-06T04:46:25;12.67;;;6.77;;
71626;SDS011;59475;52.464;13.590;2023-05-06T04:48:51;13.37;;;5.83;;
71626;SDS011;59475;52.464;13.590;2023-05-06T04:51:16;11.52;;;7.57;;
71626;SDS011;59475;52.464;13.590;2023-05-06T04:53:42;12.70;;;7.47;;
71626;SDS011;59475;52.464;13.590;2023-05-06T04:56:07;12.83;;;6.93;;
71626;SDS011;59475;52.464;13.590;2023-05-06T04:58:33;13.07;;;6.70;;
71626;SDS011;59475;52.464;13.590;2023-05-06T05:01:03;10.90;;;6.00;;
71626;SDS011;59475;52.464;13.590;2023-05-06T05:03:30;12.35;;;7.00;;
71626;SDS011;59475;52.464;13.590;2023-05-06T05:05:56;12.00;;;6.40;;
71626;SDS011;59475;52.464;13.590;2023-05-06T05:08:22;10.73;;;6.35;;
71626;SDS011;59475;52.464;13.590;2023-05-06T05:10:47;12.13;;;7.20;;
71626;SDS011;59475;52.464;13.590;2023-05-06T05:13:13;12.85;;;6.45;;
71626;SDS011;59475;52.464;13.590;2023-05-06T05:15:38;11.20;;;6.90;;
71626;SDS011;59475;52.464;13.590;2023-05-06T05:18:04;12.33;;;6.93;;
71626;SDS011;59475;52.464;13.590;2023-05-06T05:20:30;10.27;;;6.78;;
71626;SDS011;59475;52.464;13.590;2023-05-06T05:22:55;10.63;;;6.20;;
71626;SDS011;59475;52.464;13.590;2023-05-06T05:25:21;10.53;;;6.43;;
71626;SDS011;59475;52.464;13.590;2023-05-06T05:27:46;11.63;;;6.45;;
71626;SDS011;59475;52.464;13.590;2023-05-06T05:30:12;12.17;;;7.40;;
71626;SDS011;59475;52.464;13.590;2023-05-06T05:32:37;10.23;;;6.53;;
71626;SDS011;59475;52.464;13.590;2023-05-06T05:35:03;12.57;;;5.95;;
71626;SDS011;59475;52.464;13.590;2023-05-06T05:37:29;12.33;;;6.57;;
71626;SDS011;59475;52.464;13.590;2023-05-06T05:39:55;11.68;;;7.18;;
71626;SDS011;59475;52.464;13.590;2023-05-06T05:42:21;11.45;;;6.55;;
71626;SDS011;59475;52.464;13.590;2023-05-06T05:44:46;12.50;;;6.37;;
71626;SDS011;59475;52.464;13.590;2023-05-06T05:47:11;11.40;;;6.47;;
71626;SDS011;59475;52.464;13.590;2023-05-06T05:49:37;13.50;;;7.27;;
71626;SDS011;59475;52.464;13.590;2023-05-06T05:52:02;7.97;;;5.87;;
71626;SDS011;59475;52.464;13.590;2023-05-06T05:54:28;10.38;;;6.53;;
71626;SDS011;59475;52.464;13.590;2023-05-06T05:56:53;11.00;;;6.63;;
71626;SDS011;59475;52.464;13.590;2023-05-06T05:59:18;8.53;;;6.10;;
71626;SDS011;59475;52.464;13.590;2023-05-06T06:01:44;12.13;;;6.60;;
71626;SDS011;59475;52.464;13.590;2023-05-06T06:04:09;10.38;;;6.22;;
71626;SDS011;59475;52.464;13.590;2023-05-06T06:06:35;12.00;;;7.00;;
71626;SDS011;59475;52.464;13.590;2023-05-06T06:09:00;9.87;;;6.50;;
71626;SDS011;59475;52.464;13.590;2023-05-06T06:11:25;11.03;;;6.33;;
71626;SDS011;59475;52.464;13.590;2023-05-06T06:13:52;12.63;;;6.80;;
71626;SDS011;59475;52.464;13.590;2023-05-06T06:16:17;12.83;;;6.83;;
71626;SDS011;59475;52.464;13.590;2023-05-06T06:18:43;12.73;;;7.15;;
71626;SDS011;59475;52.464;13.590;2023-05-06T06:21:08;12.87;;;6.43;;
71626;SDS011;59475;52.464;13.590;2023-05-06T06:23:34;12.07;;;7.60;;
71626;SDS011;59475;52.464;13.590;2023-05-06T06:26:00;9.77;;;6.53;;
71626;SDS011;59475;52.464;13.590;2023-05-06T06:28:26;12.80;;;6.68;;
71626;SDS011;59475;52.464;13.590;2023-05-06T06:30:52;13.33;;;6.90;;
71626;SDS011;59475;52.464;13.590;2023-05-06T06:33:17;10.80;;;6.73;;
71626;SDS011;59475;52.464;13.590;2023-05-06T06:35:42;12.27;;;7.85;;
71626;SDS011;59475;52.464;13.590;2023-05-06T06:38:08;13.57;;;6.93;;
71626;SDS011;59475;52.464;13.590;2023-05-06T06:40:33;12.17;;;7.60;;
71626;SDS011;59475;52.464;13.590;2023-05-06T06:43:01;12.27;;;7.05;;
71626;SDS011;59475;52.464;13.590;2023-05-06T06:45:29;12.63;;;7.93;;
71626;SDS011;59475;52.464;13.590;2023-05-06T06:47:54;13.47;;;7.20;;
71626;SDS011;59475;52.464;13.590;2023-05-06T06:50:20;14.00;;;7.87;;
71626;SDS011;59475;52.464;13.590;2023-05-06T06:52:45;11.37;;;7.30;;
71626;SDS011;59475;52.464;13.590;2023-05-06T06:55:10;13.57;;;8.27;;
71626;SDS011;59475;52.464;13.590;2023-05-06T06:57:39;11.88;;;7.53;;
71626;SDS011;59475;52.464;13.590;2023-05-06T07:00:05;12.70;;;8.05;;
71626;SDS011;59475;52.464;13.590;2023-05-06T07:02:31;11.98;;;7.60;;
71626;SDS011;59475;52.464;13.590;2023-05-06T07:04:56;12.50;;;7.80;;
71626;SDS011;59475;52.464;13.590;2023-05-06T07:07:22;13.53;;;7.10;;
71626;SDS011;59475;52.464;13.590;2023-05-06T07:09:47;12.00;;;7.60;;
71626;SDS011;59475;52.464;13.590;2023-05-06T07:12:12;12.70;;;7.93;;
71626;SDS011;59475;52.464;13.590;2023-05-06T07:14:38;13.13;;;7.70;;
71626;SDS011;59475;52.464;13.590;2023-05-06T07:17:03;14.87;;;7.77;;
71626;SDS011;59475;52.464;13.590;2023-05-06T07:19:28;10.37;;;7.47;;
71626;SDS011;59475;52.464;13.590;2023-05-06T07:21:55;12.20;;;8.00;;
71626;SDS011;59475;52.464;13.590;2023-05-06T07:24:21;15.50;;;8.13;;
71626;SDS011;59475;52.464;13.590;2023-05-06T07:26:46;11.88;;;6.85;;
71626;SDS011;59475;52.464;13.590;2023-05-06T07:29:12;13.60;;;8.83;;
71626;SDS011;59475;52.464;13.590;2023-05-06T07:31:37;12.07;;;8.07;;
71626;SDS011;59475;52.464;13.590;2023-05-06T07:34:03;13.77;;;7.80;;
71626;SDS011;59475;52.464;13.590;2023-05-06T07:36:29;10.47;;;8.00;;
71626;SDS011;59475;52.464;13.590;2023-05-06T07:38:59;15.93;;;8.50;;
71626;SDS011;59475;52.464;13.590;2023-05-06T07:41:24;12.73;;;8.55;;
71626;SDS011;59475;52.464;13.590;2023-05-06T07:43:50;15.27;;;8.77;;
71626;SDS011;59475;52.464;13.590;2023-05-06T07:46:17;13.87;;;9.27;;
71626;SDS011;59475;52.464;13.590;2023-05-06T07:48:42;14.23;;;9.20;;
71626;SDS011;59475;52.464;13.590;2023-05-06T07:51:08;12.40;;;8.67;;
71626;SDS011;59475;52.464;13.590;2023-05-06T07:53:35;17.52;;;9.13;;
71626;SDS011;59475;52.464;13.590;2023-05-06T07:56:02;17.17;;;9.43;;
71626;SDS011;59475;52.464;13.590;2023-05-06T07:58:29;13.65;;;8.95;;
71626;SDS011;59475;52.464;13.590;2023-05-06T08:00:55;20.85;;;9.50;;
71626;SDS011;59475;52.464;13.590;2023-05-06T08:03:21;13.63;;;9.97;;
71626;SDS011;59475;52.464;13.590;2023-05-06T08:05:46;14.43;;;9.90;;
71626;SDS011;59475;52.464;13.590;2023-05-06T08:08:14;17.40;;;11.52;;
71626;SDS011;59475;52.464;13.590;2023-05-06T08:10:42;15.30;;;10.43;;
71626;SDS011;59475;52.464;13.590;2023-05-06T08:13:07;17.05;;;10.57;;
71626;SDS011;59475;52.464;13.590;2023-05-06T08:15:33;14.10;;;10.10;;
71626;SDS011;59475;52.464;13.590;2023-05-06T08:17:58;19.03;;;10.67;;
71626;SDS011;59475;52.464;13.590;2023-05-06T08:20:24;16.00;;;11.37;;
71626;SDS011;59475;52.464;13.590;2023-05-06T08:22:49;16.52;;;10.43;;
71626;SDS011;59475;52.464;13.590;2023-05-06T08:25:15;14.30;;;10.53;;
71626;SDS011;59475;52.464;13.590;2023-05-06T08:27:40;14.63;;;10.90;;
71626;SDS011;59475;52.464;13.590;2023-05-06T08:30:06;15.32;;;11.02;;
71626;SDS011;59475;52.464;13.590;2023-05-06T08:32:32;17.15;;;11.07;;
71626;SDS011;59475;52.464;13.590;2023-05-06T08:34:57;16.60;;;10.77;;
71626;SDS011;59475;52.464;13.590;2023-05-06T08:37:24;19.33;;;9.98;;
71626;SDS011;59475;52.464;13.590;2023-05-06T08:39:50;14.07;;;10.33;;
71626;SDS011;59475;52.464;13.590;2023-05-06T08:42:15;13.60;;;9.50;;
71626;SDS011;59475;52.464;13.590;2023-05-06T08:44:41;17.97;;;11.27;;
71626;SDS011;59475;52.464;13.590;2023-05-06T08:47:07;15.25;;;10.23;;
71626;SDS011;59475;52.464;13.590;2023-05-06T08:49:33;12.07;;;9.80;;
71626;SDS011;59475;52.464;13.590;2023-05-06T08:51:59;12.93;;;9.73;;
71626;SDS011;59475;52.464;13.590;2023-05-06T08:54:29;13.25;;;9.63;;
71626;SDS011;59475;52.464;13.590;2023-05-06T08:56:58;13.85;;;9.48;;
71626;SDS011;59475;52.464;13.590;2023-05-06T08:59:30;14.50;;;9.33;;
71626;SDS011;59475;52.464;13.590;2023-05-06T09:01:57;13.45;;;8.93;;
71626;SDS011;59475;52.464;13.590;2023-05-06T09:04:27;11.05;;;9.35;;
71626;SDS011;59475;52.464;13.590;2023-05-06T09:06:53;11.43;;;7.75;;
71626;SDS011;59475;52.464;13.590;2023-05-06T09:09:21;9.40;;;8.03;;
71626;SDS011;59475;52.464;13.590;2023-05-06T09:11:47;9.93;;;8.02;;
71626;SDS011;59475;52.464;13.590;2023-05-06T09:14:19;9.83;;;6.97;;
71626;SDS011;59475;52.464;13.590;2023-05-06T09:16:46;10.18;;;7.00;;
71626;SDS011;59475;52.464;13.590;2023-05-06T09:19:14;12.13;;;8.23;;
71626;SDS011;59475;52.464;13.590;2023-05-06T09:21:41;8.73;;;7.25;;
71626;SDS011;59475;52.464;13.590;2023-05-06T09:24:08;9.45;;;6.82;;
71626;SDS011;59475;52.464;13.590;2023-05-06T09:26:35;9.53;;;6.77;;
71626;SDS011;59475;52.464;13.590;2023-05-06T09:29:03;8.48;;;7.30;;
71626;SDS011;59475;52.464;13.590;2023-05-06T09:31:29;10.35;;;6.82;;
71626;SDS011;59475;52.464;13.590;2023-05-06T09:33:55;8.33;;;6.63;;
71626;SDS011;59475;52.464;13.590;2023-05-06T09:36:23;9.60;;;6.75;;
71626;SDS011;59475;52.464;13.590;2023-05-06T09:38:49;8.73;;;6.55;;
71626;SDS011;59475;52.464;13.590;2023-05-06T09:41:18;8.67;;;6.90;;
71626;SDS011;59475;52.464;13.590;2023-05-06T09:43:45;7.70;;;6.38;;
71626;SDS011;59475;52.464;13.590;2023-05-06T09:46:13;7.80;;;6.15;;
71626;SDS011;59475;52.464;13.590;2023-05-06T09:48:39;7.32;;;6.43;;
71626;SDS011;59475;52.464;13.590;2023-05-06T09:51:05;6.83;;;6.07;;
71626;SDS011;59475;52.464;13.590;2023-05-06T09:53:31;8.23;;;6.45;;
71626;SDS011;59475;52.464;13.590;2023-05-06T09:55:58;6.60;;;5.93;;
71626;SDS011;59475;52.464;13.590;2023-05-06T09:58:25;9.00;;;5.60;;
71626;SDS011;59475;52.464;13.590;2023-05-06T10:00:51;7.75;;;5.57;;
71626;SDS011;59475;52.464;13.590;2023-05-06T10:03:18;8.63;;;5.20;;
71626;SDS011;59475;52.464;13.590;2023-05-06T10:05:45;8.35;;;5.95;;
71626;SDS011;59475;52.464;13.590;2023-05-06T10:08:11;6.72;;;5.88;;
71626;SDS011;59475;52.464;13.590;2023-05-06T10:10:42;6.72;;;5.20;;
71626;SDS011;59475;52.464;13.590;2023-05-06T10:13:09;6.80;;;5.60;;
71626;SDS011;59475;52.464;13.590;2023-05-06T10:15:34;6.80;;;5.10;;
71626;SDS011;59475;52.464;13.590;2023-05-06T10:18:02;7.03;;;5.50;;
71626;SDS011;59475;52.464;13.590;2023-05-06T10:20:29;6.50;;;5.78;;
71626;SDS011;59475;52.464;13.590;2023-05-06T10:25:40;11.63;;;5.70;;
71626;SDS011;59475;52.464;13.590;2023-05-06T10:28:09;8.40;;;6.32;;
71626;SDS011;59475;52.464;13.590;2023-05-06T10:30:37;5.97;;;5.38;;
71626;SDS011;59475;52.464;13.590;2023-05-06T10:33:10;7.10;;;5.70;;
71626;SDS011;59475;52.464;13.590;2023-05-06T10:38:05;8.13;;;4.47;;
71626;SDS011;59475;52.464;13.590;2023-05-06T10:40:52;7.20;;;5.43;;
71626;SDS011;59475;52.464;13.590;2023-05-06T10:43:22;6.07;;;5.20;;
71626;SDS011;59475;52.464;13.590;2023-05-06T10:51:29;6.30;;;4.90;;
71626;SDS011;59475;52.464;13.590;2023-05-06T10:54:05;6.60;;;4.30;;
71626;SDS011;59475;52.464;13.590;2023-05-06T10:59:03;5.55;;;4.65;;
71626;SDS011;59475;52.464;13.590;2023-05-06T11:01:32;5.40;;;4.65;;
71626;SDS011;59475;52.464;13.590;2023-05-06T11:04:01;5.00;;;4.50;;
71626;SDS011;59475;52.464;13.590;2023-05-06T11:06:33;5.07;;;4.47;;
71626;SDS011;59475;52.464;13.590;2023-05-06T11:09:13;4.22;;;3.50;;
71626;SDS011;59475;52.464;13.590;2023-05-06T11:11:48;4.80;;;4.38;;
71626;SDS011;59475;52.464;13.590;2023-05-06T11:14:23;4.25;;;3.80;;
71626;SDS011;59475;52.464;13.590;2023-05-06T11:16:50;5.37;;;3.97;;
71626;SDS011;59475;52.464;13.590;2023-05-06T11:19:37;7.10;;;4.30;;
71626;SDS011;59475;52.464;13.590;2023-05-06T11:22:03;5.50;;;3.88;;
71626;SDS011;59475;52.464;13.590;2023-05-06T11:24:39;5.82;;;4.15;;
71626;SDS011;59475;52.464;13.590;2023-05-06T11:27:07;4.55;;;3.63;;
71626;SDS011;59475;52.464;13.590;2023-05-06T11:29:33;5.87;;;4.03;;
71626;SDS011;59475;52.464;13.590;2023-05-06T11:31:59;4.85;;;3.58;;
71626;SDS011;59475;52.464;13.590;2023-05-06T11:34:29;4.13;;;3.50;;
71626;SDS011;59475;52.464;13.590;2023-05-06T11:37:03;3.92;;;3.20;;
71626;SDS011;59475;52.464;13.590;2023-05-06T11:39:30;6.28;;;3.88;;
71626;SDS011;59475;52.464;13.590;2023-05-06T11:42:04;4.53;;;3.92;;
71626;SDS011;59475;52.464;13.590;2023-05-06T11:44:31;4.63;;;3.95;;
71626;SDS011;59475;52.464;13.590;2023-05-06T11:46:59;7.70;;;4.50;;
71626;SDS011;59475;52.464;13.590;2023-05-06T11:49:25;4.80;;;4.30;;
71626;SDS011;59475;52.464;13.590;2023-05-06T11:51:51;9.45;;;4.57;;
71626;SDS011;59475;52.464;13.590;2023-05-06T11:54:18;7.00;;;4.38;;
71626;SDS011;59475;52.464;13.590;2023-05-06T11:56:50;5.50;;;4.20;;
71626;SDS011;59475;52.464;13.590;2023-05-06T11:59:17;4.88;;;4.22;;
71626;SDS011;59475;52.464;13.590;2023-05-06T12:01:51;5.00;;;3.83;;
71626;SDS011;59475;52.464;13.590;2023-05-06T12:04:16;4.63;;;4.13;;
71626;SDS011;59475;52.464;13.590;2023-05-06T12:06:42;5.50;;;3.87;;
71626;SDS011;59475;52.464;13.590;2023-05-06T12:09:08;5.63;;;4.27;;
71626;SDS011;59475;52.464;13.590;2023-05-06T12:11:36;5.07;;;4.10;;
71626;SDS011;59475;52.464;13.590;2023-05-06T12:14:03;4.82;;;4.32;;
71626;SDS011;59475;52.464;13.590;2023-05-06T12:16:30;5.10;;;3.95;;
71626;SDS011;59475;52.464;13.590;2023-05-06T12:18:56;7.95;;;3.67;;
71626;SDS011;59475;52.464;13.590;2023-05-06T12:21:22;4.80;;;3.97;;
71626;SDS011;59475;52.464;13.590;2023-05-06T12:26:24;5.30;;;3.90;;
71626;SDS011;59475;52.464;13.590;2023-05-06T12:29:07;4.27;;;3.73;;
71626;SDS011;59475;52.464;13.590;2023-05-06T12:31:35;4.00;;;3.60;;
71626;SDS011;59475;52.464;13.590;2023-05-06T12:34:00;5.07;;;4.15;;
71626;SDS011;59475;52.464;13.590;2023-05-06T12:36:26;3.70;;;2.95;;
71626;SDS011;59475;52.464;13.590;2023-05-06T12:38:53;4.67;;;3.90;;
71626;SDS011;59475;52.464;13.590;2023-05-06T12:41:24;7.07;;;4.32;;
71626;SDS011;59475;52.464;13.590;2023-05-06T12:44:00;4.00;;;3.47;;
71626;SDS011;59475;52.464;13.590;2023-05-06T12:46:25;4.05;;;3.47;;
71626;SDS011;59475;52.464;13.590;2023-05-06T12:49:00;4.57;;;3.47;;
71626;SDS011;59475;52.464;13.590;2023-05-06T12:51:27;4.07;;;3.20;;
71626;SDS011;59475;52.464;13.590;2023-05-06T12:53:54;4.20;;;2.80;;
71626;SDS011;59475;52.464;13.590;2023-05-06T12:56:20;4.50;;;3.45;;
71626;SDS011;59475;52.464;13.590;2023-05-06T12:58:59;6.60;;;3.40;;
71626;SDS011;59475;52.464;13.590;2023-05-06T13:01:25;4.43;;;3.23;;
71626;SDS011;59475;52.464;13.590;2023-05-06T13:03:51;4.38;;;2.60;;
71626;SDS011;59475;52.464;13.590;2023-05-06T13:06:17;3.47;;;3.15;;
71626;SDS011;59475;52.464;13.590;2023-05-06T13:08:43;5.50;;;3.23;;
71626;SDS011;59475;52.464;13.590;2023-05-06T13:11:08;4.00;;;3.17;;
71626;SDS011;59475;52.464;13.590;2023-05-06T13:13:33;3.83;;;3.10;;
71626;SDS011;59475;52.464;13.590;2023-05-06T13:15:59;6.15;;;3.30;;
71626;SDS011;59475;52.464;13.590;2023-05-06T13:18:25;3.23;;;2.93;;
71626;SDS011;59475;52.464;13.590;2023-05-06T13:20:50;4.07;;;3.37;;
71626;SDS011;59475;52.464;13.590;2023-05-06T13:23:16;4.18;;;2.63;;
71626;SDS011;59475;52.464;13.590;2023-05-06T13:25:43;3.23;;;2.90;;
71626;SDS011;59475;52.464;13.590;2023-05-06T13:28:08;3.93;;;2.73;;
71626;SDS011;59475;52.464;13.590;2023-05-06T13:30:33;3.43;;;3.13;;
71626;SDS011;59475;52.464;13.590;2023-05-06T13:32:59;4.50;;;3.20;;
71626;SDS011;59475;52.464;13.590;2023-05-06T13:35:24;3.60;;;3.20;;
71626;SDS011;59475;52.464;13.590;2023-05-06T13:37:50;4.72;;;3.17;;
71626;SDS011;59475;52.464;13.590;2023-05-06T13:40:15;4.37;;;2.97;;
71626;SDS011;59475;52.464;13.590;2023-05-06T13:42:41;3.20;;;2.90;;
71626;SDS011;59475;52.464;13.590;2023-05-06T13:45:06;4.93;;;3.27;;
71626;SDS011;59475;52.464;13.590;2023-05-06T13:47:32;4.60;;;2.75;;
71626;SDS011;59475;52.464;13.590;2023-05-06T13:49:58;4.00;;;2.70;;
71626;SDS011;59475;52.464;13.590;2023-05-06T13:52:23;5.57;;;3.07;;
71626;SDS011;59475;52.464;13.590;2023-05-06T13:54:48;3.92;;;2.60;;
71626;SDS011;59475;52.464;13.590;2023-05-06T13:57:14;4.43;;;3.40;;
71626;SDS011;59475;52.464;13.590;2023-05-06T13:59:39;5.23;;;3.13;;
71626;SDS011;59475;52.464;13.590;2023-05-06T14:02:05;4.33;;;3.50;;
71626;SDS011;59475;52.464;13.590;2023-05-06T14:04:30;5.22;;;2.92;;
71626;SDS011;59475;52.464;13.590;2023-05-06T14:06:56;5.17;;;3.20;;
71626;SDS011;59475;52.464;13.590;2023-05-06T14:09:21;5.97;;;3.20;;
71626;SDS011;59475;52.464;13.590;2023-05-06T14:11:47;5.10;;;2.80;;
71626;SDS011;59475;52.464;13.590;2023-05-06T14:14:12;3.55;;;2.97;;
71626;SDS011;59475;52.464;13.590;2023-05-06T14:16:39;3.27;;;2.97;;
71626;SDS011;59475;52.464;13.590;2023-05-06T14:19:04;5.00;;;3.03;;
71626;SDS011;59475;52.464;13.590;2023-05-06T14:21:30;4.50;;;2.93;;
71626;SDS011;59475;52.464;13.590;2023-05-06T14:23:56;4.93;;;3.17;;
71626;SDS011;59475;52.464;13.590;2023-05-06T14:26:21;3.33;;;2.57;;
71626;SDS011;59475;52.464;13.590;2023-05-06T14:28:46;6.73;;;3.10;;
71626;SDS011;59475;52.464;13.590;2023-05-06T14:31:12;3.70;;;3.20;;
71626;SDS011;59475;52.464;13.590;2023-05-06T14:33:37;3.00;;;2.70;;
71626;SDS011;59475;52.464;13.590;2023-05-06T14:36:03;3.50;;;2.90;;
71626;SDS011;59475;52.464;13.590;2023-05-06T14:38:29;5.20;;;3.10;;
71626;SDS011;59475;52.464;13.590;2023-05-06T14:40:54;3.20;;;2.80;;
71626;SDS011;59475;52.464;13.590;2023-05-06T14:43:20;4.17;;;3.43;;